sensor_id;sensor_type;location;lat;lon;timestamp;temperature;humidity
5938;DHT22;2994;51.220;4.412;2023-04-03T00:01:05;8.72;62.68
5938;DHT22;2994;51.220;4.412;2023-04-03T00:03:31;8.71;62.47
5938;DHT22;2994;51.220;4.412;2023-04-03T00:05:57;8.70;62.82
5938;DHT22;2994;51.220;4.412;2023-04-03T00:08:22;8.71;62.89
5938;DHT22;2994;51.220;4.412;2023-04-03T00:10:48;8.67;62.67
5938;DHT22;2994;51.220;4.412;2023-04-03T00:13:14;8.66;62.77
5938;DHT22;2994;51.220;4.412;2023-04-03T00:15:40;8.62;62.32
5938;DHT22;2994;51.220;4.412;2023-04-03T00:18:05;8.61;62.88
5938;DHT22;2994;51.220;4.412;2023-04-03T00:20:31;8.59;62.87
5938;DHT22;2994;51.220;4.412;2023-04-03T00:22:57;8.57;62.86
5938;DHT22;2994;51.220;4.412;2023-04-03T00:25:23;8.56;63.13
5938;DHT22;2994;51.220;4.412;2023-04-03T00:27:48;8.56;63.23
5938;DHT22;2994;51.220;4.412;2023-04-03T00:30:16;8.53;62.80
5938;DHT22;2994;51.220;4.412;2023-04-03T00:32:42;8.50;62.97
5938;DHT22;2994;51.220;4.412;2023-04-03T00:35:09;8.50;63.03
5938;DHT22;2994;51.220;4.412;2023-04-03T00:37:34;8.48;63.15
5938;DHT22;2994;51.220;4.412;2023-04-03T00:40:01;8.47;63.29
5938;DHT22;2994;51.220;4.412;2023-04-03T00:42:26;8.47;63.21
5938;DHT22;2994;51.220;4.412;2023-04-03T00:47:21;8.42;63.11
5938;DHT22;2994;51.220;4.412;2023-04-03T00:49:46;8.39;63.17
5938;DHT22;2994;51.220;4.412;2023-04-03T00:52:16;8.39;63.02
5938;DHT22;2994;51.220;4.412;2023-04-03T00:54:43;8.38;62.66
5938;DHT22;2994;51.220;4.412;2023-04-03T00:57:11;8.37;62.98
5938;DHT22;2994;51.220;4.412;2023-04-03T00:59:48;8.35;62.77
5938;DHT22;2994;51.220;4.412;2023-04-03T01:02:16;8.33;63.18
5938;DHT22;2994;51.220;4.412;2023-04-03T01:04:43;8.32;63.08
5938;DHT22;2994;51.220;4.412;2023-04-03T01:07:12;8.32;62.86
5938;DHT22;2994;51.220;4.412;2023-04-03T01:09:40;8.29;62.94
5938;DHT22;2994;51.220;4.412;2023-04-03T01:14:50;8.28;63.04
5938;DHT22;2994;51.220;4.412;2023-04-03T01:17:36;8.27;63.28
5938;DHT22;2994;51.220;4.412;2023-04-03T01:25:23;8.24;62.93
5938;DHT22;2994;51.220;4.412;2023-04-03T01:27:49;8.20;62.86
5938;DHT22;2994;51.220;4.412;2023-04-03T01:30:17;8.19;63.08
5938;DHT22;2994;51.220;4.412;2023-04-03T01:32:43;8.20;63.37
5938;DHT22;2994;51.220;4.412;2023-04-03T01:35:09;8.21;63.50
5938;DHT22;2994;51.220;4.412;2023-04-03T01:37:34;8.22;63.16
5938;DHT22;2994;51.220;4.412;2023-04-03T01:40:00;8.21;63.05
5938;DHT22;2994;51.220;4.412;2023-04-03T01:42:25;8.20;63.11
5938;DHT22;2994;51.220;4.412;2023-04-03T01:44:51;8.19;63.21
5938;DHT22;2994;51.220;4.412;2023-04-03T01:47:16;8.18;63.37
5938;DHT22;2994;51.220;4.412;2023-04-03T01:49:42;8.19;63.27
5938;DHT22;2994;51.220;4.412;2023-04-03T01:52:07;8.20;63.13
5938;DHT22;2994;51.220;4.412;2023-04-03T01:54:33;8.16;62.92
5938;DHT22;2994;51.220;4.412;2023-04-03T01:56:58;8.17;63.02
5938;DHT22;2994;51.220;4.412;2023-04-03T01:59:23;8.14;62.88
5938;DHT22;2994;51.220;4.412;2023-04-03T02:01:49;8.12;63.02
5938;DHT22;2994;51.220;4.412;2023-04-03T02:04:14;8.12;63.15
5938;DHT22;2994;51.220;4.412;2023-04-03T02:06:40;8.08;63.09
5938;DHT22;2994;51.220;4.412;2023-04-03T02:09:06;8.07;63.28
5938;DHT22;2994;51.220;4.412;2023-04-03T02:11:32;8.07;63.60
5938;DHT22;2994;51.220;4.412;2023-04-03T02:13:57;8.08;63.54
5938;DHT22;2994;51.220;4.412;2023-04-03T02:16:23;8.07;63.17
5938;DHT22;2994;51.220;4.412;2023-04-03T02:18:48;8.06;63.22
5938;DHT22;2994;51.220;4.412;2023-04-03T02:21:15;8.07;63.44
5938;DHT22;2994;51.220;4.412;2023-04-03T02:23:40;8.07;63.70
5938;DHT22;2994;51.220;4.412;2023-04-03T02:26:09;8.07;63.51
5938;DHT22;2994;51.220;4.412;2023-04-03T02:28:35;8.05;63.32
5938;DHT22;2994;51.220;4.412;2023-04-03T02:31:00;8.05;63.16
5938;DHT22;2994;51.220;4.412;2023-04-03T02:33:26;8.02;63.24
5938;DHT22;2994;51.220;4.412;2023-04-03T02:35:55;8.00;63.26
5938;DHT22;2994;51.220;4.412;2023-04-03T02:38:21;7.98;63.34
5938;DHT22;2994;51.220;4.412;2023-04-03T02:40:47;7.94;63.15
5938;DHT22;2994;51.220;4.412;2023-04-03T02:43:13;7.92;63.37
5938;DHT22;2994;51.220;4.412;2023-04-03T02:45:39;7.92;63.59
5938;DHT22;2994;51.220;4.412;2023-04-03T02:48:05;7.93;63.53
5938;DHT22;2994;51.220;4.412;2023-04-03T02:50:30;7.92;63.28
5938;DHT22;2994;51.220;4.412;2023-04-03T02:52:56;7.87;63.32
5938;DHT22;2994;51.220;4.412;2023-04-03T02:55:21;7.88;63.56
5938;DHT22;2994;51.220;4.412;2023-04-03T02:57:47;7.87;63.88
5938;DHT22;2994;51.220;4.412;2023-04-03T03:00:12;7.84;63.67
5938;DHT22;2994;51.220;4.412;2023-04-03T03:02:38;7.85;63.63
5938;DHT22;2994;51.220;4.412;2023-04-03T03:05:04;7.79;63.81
5938;DHT22;2994;51.220;4.412;2023-04-03T03:07:29;7.76;63.99
5938;DHT22;2994;51.220;4.412;2023-04-03T03:09:55;7.75;64.05
5938;DHT22;2994;51.220;4.412;2023-04-03T03:12:20;7.75;64.55
5938;DHT22;2994;51.220;4.412;2023-04-03T03:14:50;7.74;64.33
5938;DHT22;2994;51.220;4.412;2023-04-03T03:17:16;7.70;64.43
5938;DHT22;2994;51.220;4.412;2023-04-03T03:19:42;7.69;64.36
5938;DHT22;2994;51.220;4.412;2023-04-03T03:22:07;7.63;64.49
5938;DHT22;2994;51.220;4.412;2023-04-03T03:24:33;7.62;64.56
5938;DHT22;2994;51.220;4.412;2023-04-03T03:26:58;7.58;64.69
5938;DHT22;2994;51.220;4.412;2023-04-03T03:29:24;7.58;64.92
5938;DHT22;2994;51.220;4.412;2023-04-03T03:31:49;7.57;64.83
5938;DHT22;2994;51.220;4.412;2023-04-03T03:34:15;7.55;65.04
5938;DHT22;2994;51.220;4.412;2023-04-03T03:36:40;7.52;64.98
5938;DHT22;2994;51.220;4.412;2023-04-03T03:39:06;7.48;65.11
5938;DHT22;2994;51.220;4.412;2023-04-03T03:41:31;7.44;65.21
5938;DHT22;2994;51.220;4.412;2023-04-03T03:43:57;7.40;65.33
5938;DHT22;2994;51.220;4.412;2023-04-03T03:46:22;7.41;65.47
5938;DHT22;2994;51.220;4.412;2023-04-03T03:48:48;7.40;65.77
5938;DHT22;2994;51.220;4.412;2023-04-03T03:51:13;7.41;65.95
5938;DHT22;2994;51.220;4.412;2023-04-03T03:53:39;7.38;65.78
5938;DHT22;2994;51.220;4.412;2023-04-03T03:56:05;7.34;65.86
5938;DHT22;2994;51.220;4.412;2023-04-03T03:58:31;7.37;65.86
5938;DHT22;2994;51.220;4.412;2023-04-03T04:01:00;7.33;65.99
5938;DHT22;2994;51.220;4.412;2023-04-03T04:03:26;7.29;65.94
5938;DHT22;2994;51.220;4.412;2023-04-03T04:05:52;7.27;65.99
5938;DHT22;2994;51.220;4.412;2023-04-03T04:08:17;7.25;66.15
5938;DHT22;2994;51.220;4.412;2023-04-03T04:10:43;7.22;66.27
5938;DHT22;2994;51.220;4.412;2023-04-03T04:13:08;7.24;66.14
5938;DHT22;2994;51.220;4.412;2023-04-03T04:15:34;7.19;66.20
5938;DHT22;2994;51.220;4.412;2023-04-03T04:17:59;7.19;66.30
5938;DHT22;2994;51.220;4.412;2023-04-03T04:20:25;7.18;66.55
5938;DHT22;2994;51.220;4.412;2023-04-03T04:22:50;7.16;66.43
5938;DHT22;2994;51.220;4.412;2023-04-03T04:25:16;7.18;66.40
5938;DHT22;2994;51.220;4.412;2023-04-03T04:27:41;7.22;66.44
5938;DHT22;2994;51.220;4.412;2023-04-03T04:30:07;7.17;66.28
5938;DHT22;2994;51.220;4.412;2023-04-03T04:32:33;7.16;66.47
5938;DHT22;2994;51.220;4.412;2023-04-03T04:34:58;7.15;66.64
5938;DHT22;2994;51.220;4.412;2023-04-03T04:37:24;7.15;66.83
5938;DHT22;2994;51.220;4.412;2023-04-03T04:39:49;7.16;66.65
5938;DHT22;2994;51.220;4.412;2023-04-03T04:42:15;7.17;66.44
5938;DHT22;2994;51.220;4.412;2023-04-03T04:44:40;7.14;66.42
5938;DHT22;2994;51.220;4.412;2023-04-03T04:47:06;7.12;66.47
5938;DHT22;2994;51.220;4.412;2023-04-03T04:49:32;7.12;66.75
5938;DHT22;2994;51.220;4.412;2023-04-03T04:51:57;7.11;66.53
5938;DHT22;2994;51.220;4.412;2023-04-03T04:54:22;7.11;66.64
5938;DHT22;2994;51.220;4.412;2023-04-03T04:56:48;7.10;66.62
5938;DHT22;2994;51.220;4.412;2023-04-03T04:59:13;7.10;66.69
5938;DHT22;2994;51.220;4.412;2023-04-03T05:01:39;7.10;66.56
5938;DHT22;2994;51.220;4.412;2023-04-03T05:04:04;7.11;66.64
5938;DHT22;2994;51.220;4.412;2023-04-03T05:06:30;7.08;66.81
5938;DHT22;2994;51.220;4.412;2023-04-03T05:08:57;7.08;66.51
5938;DHT22;2994;51.220;4.412;2023-04-03T05:11:23;7.04;66.85
5938;DHT22;2994;51.220;4.412;2023-04-03T05:13:49;7.04;67.03
5938;DHT22;2994;51.220;4.412;2023-04-03T05:16:15;7.08;66.58
5938;DHT22;2994;51.220;4.412;2023-04-03T05:18:40;7.03;66.85
5938;DHT22;2994;51.220;4.412;2023-04-03T05:21:05;7.02;66.78
5938;DHT22;2994;51.220;4.412;2023-04-03T05:23:31;7.00;66.76
5938;DHT22;2994;51.220;4.412;2023-04-03T05:25:56;6.97;66.92
5938;DHT22;2994;51.220;4.412;2023-04-03T05:28:22;6.96;66.69
5938;DHT22;2994;51.220;4.412;2023-04-03T05:30:58;6.97;66.79
5938;DHT22;2994;51.220;4.412;2023-04-03T05:33:24;6.91;66.94
5938;DHT22;2994;51.220;4.412;2023-04-03T05:35:49;6.94;66.95
5938;DHT22;2994;51.220;4.412;2023-04-03T05:38:15;6.93;66.84
5938;DHT22;2994;51.220;4.412;2023-04-03T05:40:40;6.90;66.89
5938;DHT22;2994;51.220;4.412;2023-04-03T05:43:06;6.93;67.29
5938;DHT22;2994;51.220;4.412;2023-04-03T05:45:32;6.90;67.15
5938;DHT22;2994;51.220;4.412;2023-04-03T05:47:57;6.93;66.85
5938;DHT22;2994;51.220;4.412;2023-04-03T05:50:22;6.90;67.03
5938;DHT22;2994;51.220;4.412;2023-04-03T05:52:49;6.88;66.85
5938;DHT22;2994;51.220;4.412;2023-04-03T05:55:16;6.89;67.10
5938;DHT22;2994;51.220;4.412;2023-04-03T05:57:42;6.88;66.74
5938;DHT22;2994;51.220;4.412;2023-04-03T06:00:11;6.87;66.85
5938;DHT22;2994;51.220;4.412;2023-04-03T06:02:37;6.88;67.07
5938;DHT22;2994;51.220;4.412;2023-04-03T06:05:04;6.89;66.78
5938;DHT22;2994;51.220;4.412;2023-04-03T06:07:30;6.87;66.83
5938;DHT22;2994;51.220;4.412;2023-04-03T06:09:57;6.85;66.60
5938;DHT22;2994;51.220;4.412;2023-04-03T06:12:23;6.84;67.22
5938;DHT22;2994;51.220;4.412;2023-04-03T06:14:48;6.86;66.52
5938;DHT22;2994;51.220;4.412;2023-04-03T06:17:15;6.80;66.75
5938;DHT22;2994;51.220;4.412;2023-04-03T06:19:42;6.78;66.62
5938;DHT22;2994;51.220;4.412;2023-04-03T06:22:07;6.78;66.78
5938;DHT22;2994;51.220;4.412;2023-04-03T06:24:32;6.78;66.76
5938;DHT22;2994;51.220;4.412;2023-04-03T06:26:58;6.75;66.62
5938;DHT22;2994;51.220;4.412;2023-04-03T06:29:24;6.76;66.68
5938;DHT22;2994;51.220;4.412;2023-04-03T06:31:51;6.76;66.51
5938;DHT22;2994;51.220;4.412;2023-04-03T06:34:17;6.78;66.40
5938;DHT22;2994;51.220;4.412;2023-04-03T06:36:43;6.80;66.20
5938;DHT22;2994;51.220;4.412;2023-04-03T06:39:15;6.81;66.19
5938;DHT22;2994;51.220;4.412;2023-04-03T06:41:41;6.72;66.43
5938;DHT22;2994;51.220;4.412;2023-04-03T06:44:06;6.78;66.55
5938;DHT22;2994;51.220;4.412;2023-04-03T06:46:36;6.78;66.62
5938;DHT22;2994;51.220;4.412;2023-04-03T06:49:02;6.83;66.59
5938;DHT22;2994;51.220;4.412;2023-04-03T06:51:28;6.85;66.42
5938;DHT22;2994;51.220;4.412;2023-04-03T06:53:56;6.87;66.24
5938;DHT22;2994;51.220;4.412;2023-04-03T06:56:22;6.89;65.86
5938;DHT22;2994;51.220;4.412;2023-04-03T06:58:49;6.95;66.07
5938;DHT22;2994;51.220;4.412;2023-04-03T07:01:16;6.97;66.56
5938;DHT22;2994;51.220;4.412;2023-04-03T07:03:43;7.01;66.02
5938;DHT22;2994;51.220;4.412;2023-04-03T07:06:11;7.05;65.26
5938;DHT22;2994;51.220;4.412;2023-04-03T07:08:37;7.02;65.02
5938;DHT22;2994;51.220;4.412;2023-04-03T07:11:03;7.11;64.91
5938;DHT22;2994;51.220;4.412;2023-04-03T07:13:29;7.24;64.02
5938;DHT22;2994;51.220;4.412;2023-04-03T07:15:55;7.19;65.37
5938;DHT22;2994;51.220;4.412;2023-04-03T07:18:20;7.27;64.85
5938;DHT22;2994;51.220;4.412;2023-04-03T07:20:46;7.31;64.79
5938;DHT22;2994;51.220;4.412;2023-04-03T07:23:12;7.34;65.04
5938;DHT22;2994;51.220;4.412;2023-04-03T07:25:43;7.45;63.70
5938;DHT22;2994;51.220;4.412;2023-04-03T07:28:09;7.46;63.98
5938;DHT22;2994;51.220;4.412;2023-04-03T07:30:34;7.49;63.43
5938;DHT22;2994;51.220;4.412;2023-04-03T07:33:00;7.58;63.95
5938;DHT22;2994;51.220;4.412;2023-04-03T07:35:26;7.67;63.51
5938;DHT22;2994;51.220;4.412;2023-04-03T07:37:52;7.73;62.63
5938;DHT22;2994;51.220;4.412;2023-04-03T07:40:18;7.76;63.33
5938;DHT22;2994;51.220;4.412;2023-04-03T07:42:44;7.84;63.76
5938;DHT22;2994;51.220;4.412;2023-04-03T07:45:10;7.96;62.85
5938;DHT22;2994;51.220;4.412;2023-04-03T07:47:35;7.96;63.08
5938;DHT22;2994;51.220;4.412;2023-04-03T07:50:01;8.08;61.77
5938;DHT22;2994;51.220;4.412;2023-04-03T07:52:26;8.16;61.76
5938;DHT22;2994;51.220;4.412;2023-04-03T07:54:52;8.26;61.81
5938;DHT22;2994;51.220;4.412;2023-04-03T07:57:17;8.24;61.57
5938;DHT22;2994;51.220;4.412;2023-04-03T07:59:43;8.42;60.47
5938;DHT22;2994;51.220;4.412;2023-04-03T08:02:09;8.52;60.51
5938;DHT22;2994;51.220;4.412;2023-04-03T08:04:35;8.65;60.03
5938;DHT22;2994;51.220;4.412;2023-04-03T08:07:00;8.74;59.22
5938;DHT22;2994;51.220;4.412;2023-04-03T08:09:26;8.85;60.13
5938;DHT22;2994;51.220;4.412;2023-04-03T08:11:51;8.94;60.28
5938;DHT22;2994;51.220;4.412;2023-04-03T08:14:18;8.97;59.34
5938;DHT22;2994;51.220;4.412;2023-04-03T08:16:45;9.01;57.33
5938;DHT22;2994;51.220;4.412;2023-04-03T08:19:11;8.77;58.09
5938;DHT22;2994;51.220;4.412;2023-04-03T08:21:40;8.95;57.71
5938;DHT22;2994;51.220;4.412;2023-04-03T08:24:07;8.91;56.98
5938;DHT22;2994;51.220;4.412;2023-04-03T08:26:32;9.16;56.41
5938;DHT22;2994;51.220;4.412;2023-04-03T08:28:58;9.26;56.72
5938;DHT22;2994;51.220;4.412;2023-04-03T08:31:23;9.48;57.10
5938;DHT22;2994;51.220;4.412;2023-04-03T08:33:49;9.65;56.25
5938;DHT22;2994;51.220;4.412;2023-04-03T08:36:24;9.67;55.11
5938;DHT22;2994;51.220;4.412;2023-04-03T08:38:52;9.78;55.63
5938;DHT22;2994;51.220;4.412;2023-04-03T08:41:40;9.77;51.95
5938;DHT22;2994;51.220;4.412;2023-04-03T08:49:29;10.12;53.03
5938;DHT22;2994;51.220;4.412;2023-04-03T08:51:57;10.34;51.63
5938;DHT22;2994;51.220;4.412;2023-04-03T08:54:30;10.46;52.38
5938;DHT22;2994;51.220;4.412;2023-04-03T08:56:59;10.57;52.16
5938;DHT22;2994;51.220;4.412;2023-04-03T08:59:30;10.88;50.59
5938;DHT22;2994;51.220;4.412;2023-04-03T09:01:59;12.18;48.40
5938;DHT22;2994;51.220;4.412;2023-04-03T09:04:27;11.93;47.75
5938;DHT22;2994;51.220;4.412;2023-04-03T09:07:06;11.97;45.67
5938;DHT22;2994;51.220;4.412;2023-04-03T09:09:40;11.90;47.76
5938;DHT22;2994;51.220;4.412;2023-04-03T09:12:11;12.73;46.75
5938;DHT22;2994;51.220;4.412;2023-04-03T09:14:52;14.05;42.53
5938;DHT22;2994;51.220;4.412;2023-04-03T09:23:22;12.64;44.67
5938;DHT22;2994;51.220;4.412;2023-04-03T09:25:51;12.55;45.66
5938;DHT22;2994;51.220;4.412;2023-04-03T09:28:19;12.44;46.67
5938;DHT22;2994;51.220;4.412;2023-04-03T09:30:45;12.33;46.41
5938;DHT22;2994;51.220;4.412;2023-04-03T09:33:10;12.37;44.89
5938;DHT22;2994;51.220;4.412;2023-04-03T09:35:37;12.37;45.45
5938;DHT22;2994;51.220;4.412;2023-04-03T09:41:22;12.28;45.58
5938;DHT22;2994;51.220;4.412;2023-04-03T09:43:31;12.06;46.19
5938;DHT22;2994;51.220;4.412;2023-04-03T09:46:24;12.20;44.99
5938;DHT22;2994;51.220;4.412;2023-04-03T09:49:01;12.28;44.02
5938;DHT22;2994;51.220;4.412;2023-04-03T09:51:28;12.19;46.03
5938;DHT22;2994;51.220;4.412;2023-04-03T09:53:54;12.19;44.80
5938;DHT22;2994;51.220;4.412;2023-04-03T09:56:22;12.42;43.87
5938;DHT22;2994;51.220;4.412;2023-04-03T09:59:06;12.46;42.31
5938;DHT22;2994;51.220;4.412;2023-04-03T10:01:35;12.42;43.74
5938;DHT22;2994;51.220;4.412;2023-04-03T10:04:11;12.41;44.00
5938;DHT22;2994;51.220;4.412;2023-04-03T10:06:42;12.50;42.55
5938;DHT22;2994;51.220;4.412;2023-04-03T10:31:22;12.70;43.95
5938;DHT22;2994;51.220;4.412;2023-04-03T10:45:27;13.04;39.01
5938;DHT22;2994;51.220;4.412;2023-04-03T10:48:06;13.03;35.32
5938;DHT22;2994;51.220;4.412;2023-04-03T10:50:52;12.96;39.79
5938;DHT22;2994;51.220;4.412;2023-04-03T10:53:38;12.99;38.27
5938;DHT22;2994;51.220;4.412;2023-04-03T10:58:56;13.08;36.97
5938;DHT22;2994;51.220;4.412;2023-04-03T11:01:35;13.17;35.69
5938;DHT22;2994;51.220;4.412;2023-04-03T11:04:04;13.19;35.47
5938;DHT22;2994;51.220;4.412;2023-04-03T11:06:44;13.23;34.98
5938;DHT22;2994;51.220;4.412;2023-04-03T11:11:54;13.16;35.70
5938;DHT22;2994;51.220;4.412;2023-04-03T11:14:28;13.22;35.98
5938;DHT22;2994;51.220;4.412;2023-04-03T11:22:38;13.32;35.82
5938;DHT22;2994;51.220;4.412;2023-04-03T11:27:44;13.19;36.21
5938;DHT22;2994;51.220;4.412;2023-04-03T11:30:23;13.27;32.60
5938;DHT22;2994;51.220;4.412;2023-04-03T11:35:45;13.24;31.47
5938;DHT22;2994;51.220;4.412;2023-04-03T11:38:41;13.35;29.10
5938;DHT22;2994;51.220;4.412;2023-04-03T11:41:09;13.11;32.06
5938;DHT22;2994;51.220;4.412;2023-04-03T11:43:41;13.16;32.39
5938;DHT22;2994;51.220;4.412;2023-04-03T11:46:08;13.17;32.53
5938;DHT22;2994;51.220;4.412;2023-04-03T11:48:43;13.17;32.01
5938;DHT22;2994;51.220;4.412;2023-04-03T11:53:40;13.15;31.17
5938;DHT22;2994;51.220;4.412;2023-04-03T12:01:53;13.22;29.77
5938;DHT22;2994;51.220;4.412;2023-04-03T12:04:25;13.16;30.31
5938;DHT22;2994;51.220;4.412;2023-04-03T12:07:13;13.51;26.96
5938;DHT22;2994;51.220;4.412;2023-04-03T12:12:37;13.36;28.51
5938;DHT22;2994;51.220;4.412;2023-04-03T12:15:41;13.50;29.20
5938;DHT22;2994;51.220;4.412;2023-04-03T12:21:13;12.99;29.61
5938;DHT22;2994;51.220;4.412;2023-04-03T12:40:42;13.63;25.85
5938;DHT22;2994;51.220;4.412;2023-04-03T12:45:59;13.80;25.46
5938;DHT22;2994;51.220;4.412;2023-04-03T12:48:29;13.83;25.75
5938;DHT22;2994;51.220;4.412;2023-04-03T12:50:56;13.91;24.48
5938;DHT22;2994;51.220;4.412;2023-04-03T12:53:25;13.96;23.60
5938;DHT22;2994;51.220;4.412;2023-04-03T12:56:18;13.70;28.08
5938;DHT22;2994;51.220;4.412;2023-04-03T12:58:43;13.84;26.07
5938;DHT22;2994;51.220;4.412;2023-04-03T13:01:17;13.74;25.82
5938;DHT22;2994;51.220;4.412;2023-04-03T13:03:45;13.68;26.10
5938;DHT22;2994;51.220;4.412;2023-04-03T13:06:32;13.74;28.72
5938;DHT22;2994;51.220;4.412;2023-04-03T13:09:00;13.75;25.38
5938;DHT22;2994;51.220;4.412;2023-04-03T13:11:30;13.73;26.14
5938;DHT22;2994;51.220;4.412;2023-04-03T13:14:12;13.56;27.10
5938;DHT22;2994;51.220;4.412;2023-04-03T13:16:39;13.61;27.18
5938;DHT22;2994;51.220;4.412;2023-04-03T13:19:14;13.69;26.39
5938;DHT22;2994;51.220;4.412;2023-04-03T13:21:40;13.53;26.35
5938;DHT22;2994;51.220;4.412;2023-04-03T13:24:06;13.38;27.98
5938;DHT22;2994;51.220;4.412;2023-04-03T13:26:33;13.45;27.05
5938;DHT22;2994;51.220;4.412;2023-04-03T13:29:14;13.51;26.82
5938;DHT22;2994;51.220;4.412;2023-04-03T13:31:44;13.60;26.29
5938;DHT22;2994;51.220;4.412;2023-04-03T13:36:45;13.37;27.20
5938;DHT22;2994;51.220;4.412;2023-04-03T13:41:43;13.51;27.07
5938;DHT22;2994;51.220;4.412;2023-04-03T13:46:50;13.31;27.10
5938;DHT22;2994;51.220;4.412;2023-04-03T13:51:56;13.29;28.63
5938;DHT22;2994;51.220;4.412;2023-04-03T13:54:34;13.49;26.78
5938;DHT22;2994;51.220;4.412;2023-04-03T13:57:01;13.54;27.33
5938;DHT22;2994;51.220;4.412;2023-04-03T13:59:32;13.63;25.01
5938;DHT22;2994;51.220;4.412;2023-04-03T14:04:29;13.20;28.24
5938;DHT22;2994;51.220;4.412;2023-04-03T14:06:56;13.37;26.10
5938;DHT22;2994;51.220;4.412;2023-04-03T14:09:24;13.11;29.36
5938;DHT22;2994;51.220;4.412;2023-04-03T14:11:53;13.40;28.72
5938;DHT22;2994;51.220;4.412;2023-04-03T14:14:26;13.52;25.90
5938;DHT22;2994;51.220;4.412;2023-04-03T14:16:55;13.21;25.92
5938;DHT22;2994;51.220;4.412;2023-04-03T14:19:31;13.34;26.48
5938;DHT22;2994;51.220;4.412;2023-04-03T14:21:58;13.25;26.26
5938;DHT22;2994;51.220;4.412;2023-04-03T14:24:24;13.29;27.52
5938;DHT22;2994;51.220;4.412;2023-04-03T14:26:54;13.56;25.68
5938;DHT22;2994;51.220;4.412;2023-04-03T14:29:20;13.66;24.59
5938;DHT22;2994;51.220;4.412;2023-04-03T14:31:48;13.50;25.24
5938;DHT22;2994;51.220;4.412;2023-04-03T14:34:15;13.36;25.42
5938;DHT22;2994;51.220;4.412;2023-04-03T14:36:42;13.47;25.19
5938;DHT22;2994;51.220;4.412;2023-04-03T14:39:16;13.32;26.20
5938;DHT22;2994;51.220;4.412;2023-04-03T14:41:43;13.21;28.50
5938;DHT22;2994;51.220;4.412;2023-04-03T14:44:09;13.39;27.26
5938;DHT22;2994;51.220;4.412;2023-04-03T14:46:37;13.45;27.68
5938;DHT22;2994;51.220;4.412;2023-04-03T14:49:05;13.41;27.08
5938;DHT22;2994;51.220;4.412;2023-04-03T14:51:35;13.37;28.76
5938;DHT22;2994;51.220;4.412;2023-04-03T14:54:03;13.41;26.50
5938;DHT22;2994;51.220;4.412;2023-04-03T14:56:30;13.40;26.30
5938;DHT22;2994;51.220;4.412;2023-04-03T14:58:59;13.37;26.16
5938;DHT22;2994;51.220;4.412;2023-04-03T15:01:25;13.26;28.75
5938;DHT22;2994;51.220;4.412;2023-04-03T15:03:51;13.08;26.79
5938;DHT22;2994;51.220;4.412;2023-04-03T15:06:17;13.43;25.01
5938;DHT22;2994;51.220;4.412;2023-04-03T15:08:43;13.43;26.71
5938;DHT22;2994;51.220;4.412;2023-04-03T15:11:10;13.41;26.76
5938;DHT22;2994;51.220;4.412;2023-04-03T15:13:36;13.33;27.95
5938;DHT22;2994;51.220;4.412;2023-04-03T15:16:02;13.35;27.87
5938;DHT22;2994;51.220;4.412;2023-04-03T15:18:32;13.22;27.44
5938;DHT22;2994;51.220;4.412;2023-04-03T15:21:00;13.31;28.64
5938;DHT22;2994;51.220;4.412;2023-04-03T15:23:26;13.39;30.21
5938;DHT22;2994;51.220;4.412;2023-04-03T15:25:53;13.47;26.68
5938;DHT22;2994;51.220;4.412;2023-04-03T15:28:32;13.46;25.97
5938;DHT22;2994;51.220;4.412;2023-04-03T15:30:58;13.38;26.81
5938;DHT22;2994;51.220;4.412;2023-04-03T15:33:24;13.47;25.91
5938;DHT22;2994;51.220;4.412;2023-04-03T15:35:50;13.25;28.31
5938;DHT22;2994;51.220;4.412;2023-04-03T15:38:15;12.82;28.18
5938;DHT22;2994;51.220;4.412;2023-04-03T15:40:41;13.22;28.45
5938;DHT22;2994;51.220;4.412;2023-04-03T15:43:08;13.15;26.97
5938;DHT22;2994;51.220;4.412;2023-04-03T15:45:35;13.22;29.91
5938;DHT22;2994;51.220;4.412;2023-04-03T15:48:02;13.12;27.41
5938;DHT22;2994;51.220;4.412;2023-04-03T15:50:28;13.31;28.00
5938;DHT22;2994;51.220;4.412;2023-04-03T15:52:54;13.31;28.28
5938;DHT22;2994;51.220;4.412;2023-04-03T15:55:24;13.22;28.11
5938;DHT22;2994;51.220;4.412;2023-04-03T15:57:50;13.19;27.71
5938;DHT22;2994;51.220;4.412;2023-04-03T16:00:16;13.31;27.61
5938;DHT22;2994;51.220;4.412;2023-04-03T16:02:44;13.21;27.63
5938;DHT22;2994;51.220;4.412;2023-04-03T16:05:10;13.45;27.81
5938;DHT22;2994;51.220;4.412;2023-04-03T16:07:38;13.59;26.92
5938;DHT22;2994;51.220;4.412;2023-04-03T16:10:05;13.49;28.47
5938;DHT22;2994;51.220;4.412;2023-04-03T16:12:30;13.43;28.46
5938;DHT22;2994;51.220;4.412;2023-04-03T16:14:56;13.53;28.00
5938;DHT22;2994;51.220;4.412;2023-04-03T16:17:21;13.43;29.37
5938;DHT22;2994;51.220;4.412;2023-04-03T16:19:47;13.09;28.52
5938;DHT22;2994;51.220;4.412;2023-04-03T16:22:13;13.14;30.35
5938;DHT22;2994;51.220;4.412;2023-04-03T16:24:38;13.15;31.22
5938;DHT22;2994;51.220;4.412;2023-04-03T16:27:04;13.22;29.33
5938;DHT22;2994;51.220;4.412;2023-04-03T16:29:29;13.25;29.07
5938;DHT22;2994;51.220;4.412;2023-04-03T16:31:56;13.16;30.02
5938;DHT22;2994;51.220;4.412;2023-04-03T16:34:22;13.03;30.31
5938;DHT22;2994;51.220;4.412;2023-04-03T16:36:48;13.11;29.23
5938;DHT22;2994;51.220;4.412;2023-04-03T16:39:13;13.08;29.80
5938;DHT22;2994;51.220;4.412;2023-04-03T16:41:39;13.10;28.42
5938;DHT22;2994;51.220;4.412;2023-04-03T16:44:05;12.97;30.38
5938;DHT22;2994;51.220;4.412;2023-04-03T16:46:32;13.05;29.19
5938;DHT22;2994;51.220;4.412;2023-04-03T16:48:58;12.87;29.87
5938;DHT22;2994;51.220;4.412;2023-04-03T16:51:23;12.96;29.46
5938;DHT22;2994;51.220;4.412;2023-04-03T16:53:48;12.89;29.91
5938;DHT22;2994;51.220;4.412;2023-04-03T16:56:14;12.77;31.22
5938;DHT22;2994;51.220;4.412;2023-04-03T16:58:40;12.86;29.77
5938;DHT22;2994;51.220;4.412;2023-04-03T17:01:13;12.84;29.94
5938;DHT22;2994;51.220;4.412;2023-04-03T17:03:39;12.75;33.16
5938;DHT22;2994;51.220;4.412;2023-04-03T17:06:05;12.72;30.67
5938;DHT22;2994;51.220;4.412;2023-04-03T17:08:31;12.74;31.60
5938;DHT22;2994;51.220;4.412;2023-04-03T17:10:56;12.70;33.58
5938;DHT22;2994;51.220;4.412;2023-04-03T17:13:22;12.74;31.68
5938;DHT22;2994;51.220;4.412;2023-04-03T17:15:47;12.64;33.59
5938;DHT22;2994;51.220;4.412;2023-04-03T17:18:13;12.58;32.34
5938;DHT22;2994;51.220;4.412;2023-04-03T17:20:39;12.51;32.63
5938;DHT22;2994;51.220;4.412;2023-04-03T17:23:05;12.60;31.25
5938;DHT22;2994;51.220;4.412;2023-04-03T17:25:31;12.56;31.61
5938;DHT22;2994;51.220;4.412;2023-04-03T17:27:56;12.58;31.13
5938;DHT22;2994;51.220;4.412;2023-04-03T17:30:22;12.50;32.64
5938;DHT22;2994;51.220;4.412;2023-04-03T17:32:47;12.50;32.15
5938;DHT22;2994;51.220;4.412;2023-04-03T17:35:13;12.43;31.17
5938;DHT22;2994;51.220;4.412;2023-04-03T17:37:39;12.49;31.83
5938;DHT22;2994;51.220;4.412;2023-04-03T17:40:05;12.38;32.29
5938;DHT22;2994;51.220;4.412;2023-04-03T17:42:31;12.40;32.23
5938;DHT22;2994;51.220;4.412;2023-04-03T17:44:57;12.29;33.05
5938;DHT22;2994;51.220;4.412;2023-04-03T17:47:22;12.28;32.71
5938;DHT22;2994;51.220;4.412;2023-04-03T17:49:48;12.19;33.05
5938;DHT22;2994;51.220;4.412;2023-04-03T17:52:13;12.15;33.25
5938;DHT22;2994;51.220;4.412;2023-04-03T17:54:39;12.11;33.49
5938;DHT22;2994;51.220;4.412;2023-04-03T17:57:05;12.06;32.77
5938;DHT22;2994;51.220;4.412;2023-04-03T17:59:31;12.05;34.10
5938;DHT22;2994;51.220;4.412;2023-04-03T18:01:56;12.02;34.31
5938;DHT22;2994;51.220;4.412;2023-04-03T18:04:22;12.08;33.47
5938;DHT22;2994;51.220;4.412;2023-04-03T18:06:49;11.87;35.24
5938;DHT22;2994;51.220;4.412;2023-04-03T18:09:20;11.85;34.87
5938;DHT22;2994;51.220;4.412;2023-04-03T18:11:48;11.82;35.99
5938;DHT22;2994;51.220;4.412;2023-04-03T18:14:16;11.92;34.52